Time;durP1;ratioP1;P1;durP2;ratioP2;P2;SDS_P1;SDS_P2;PMS_P1;PMS_P2;Temp;Humidity;BMP_temperature;BMP_pressure;BME280_temperature;BME280_humidity;BME280_pressure;Samples;Min_cycle;Max_cycle;Signal;HPM_P1;HPM_P2
2023/05/11 00:01:55;;;;;;;11.50;5.70;;;;;;;11.44;56.43;100663.95;216387;1289;139197;-92
2023/05/11 00:06:56;;;;;;;10.40;5.30;;;;;;;11.41;56.45;100662.11;216971;1291;138775;-89
2023/05/11 00:11:56;;;;;;;9.70;4.20;;;;;;;11.38;56.18;100656.95;216330;1289;138428;-90
2023/05/11 00:16:57;;;;;;;15.10;5.10;;;;;;;11.36;56.19;100657.87;217040;1289;97131;-91
2023/05/11 00:21:58;;;;;;;9.90;4.80;;;;;;;11.34;56.09;100655.58;216340;1288;138907;-90
2023/05/11 00:26:58;;;;;;;13.60;4.20;;;;;;;11.35;55.73;100653.14;216889;1292;137599;-87
2023/05/11 00:31:59;;;;;;;11.30;4.50;;;;;;;11.37;55.41;100651.82;216343;1289;138648;-89
2023/05/11 00:36:59;;;;;;;9.20;3.90;;;;;;;11.38;55.18;100653.56;216839;1291;138035;-87
2023/05/11 00:42:00;;;;;;;11.50;4.20;;;;;;;11.40;54.81;100653.04;216425;1289;138885;-91
2023/05/11 00:47:00;;;;;;;10.40;4.00;;;;;;;11.44;54.19;100654.83;217069;1290;96606;-87
2023/05/11 00:52:01;;;;;;;12.30;3.70;;;;;;;11.48;54.26;100656.52;216429;1289;137642;-86
2023/05/11 00:57:02;;;;;;;9.80;4.00;;;;;;;11.46;53.96;100654.77;216870;1289;137660;-86
2023/05/11 01:02:04;;;;;;;12.30;4.60;;;;;;;11.43;53.87;100654.11;216399;1291;138462;-88
2023/05/11 01:07:24;;;;;;;15.20;4.60;;;;;;;11.39;53.88;100655.55;216914;1291;137994;-90
2023/05/11 01:12:42;;;;;;;10.50;3.80;;;;;;;11.33;54.00;100653.89;216358;1291;139147;-87
2023/05/11 01:17:53;;;;;;;14.10;4.80;;;;;;;11.25;54.22;100650.98;216866;1289;138642;-86
2023/05/11 01:23:26;;;;;;;11.70;4.00;;;;;;;11.20;54.27;100655.71;216466;1287;138556;-90
2023/05/11 01:28:53;;;;;;;8.50;3.40;;;;;;;11.13;54.16;100651.39;216927;1292;104761;-88
2023/05/11 01:33:57;;;;;;;9.90;4.30;;;;;;;11.11;54.17;100658.67;215995;1290;138489;-86
2023/05/11 01:39:03;;;;;;;10.50;4.10;;;;;;;11.07;54.57;100658.63;216482;1289;138172;-84
2023/05/11 01:44:08;;;;;;;13.10;4.40;;;;;;;11.04;54.45;100653.48;216902;1291;137850;-86
2023/05/11 01:49:11;;;;;;;8.70;4.30;;;;;;;11.03;54.52;100656.29;216393;1292;139237;-87
2023/05/11 01:54:13;;;;;;;9.10;3.80;;;;;;;11.01;54.34;100656.98;216968;1288;138400;-89
2023/05/11 01:59:16;;;;;;;10.80;4.20;;;;;;;10.97;54.54;100658.50;216454;1290;138294;-86
2023/05/11 02:04:18;;;;;;;12.90;4.60;;;;;;;10.92;54.62;100659.61;217041;1289;96609;-88
2023/05/11 02:09:22;;;;;;;12.60;4.50;;;;;;;10.87;54.72;100660.86;216494;1289;138019;-87
2023/05/11 02:14:24;;;;;;;12.00;4.80;;;;;;;10.79;54.81;100657.86;216717;1289;139393;-87
2023/05/11 02:19:26;;;;;;;13.00;4.50;;;;;;;10.73;54.97;100658.65;216464;1289;137979;-87
2023/05/11 02:24:29;;;;;;;8.20;4.30;;;;;;;10.67;55.18;100661.06;216922;1292;138875;-87
2023/05/11 02:29:30;;;;;;;12.00;4.60;;;;;;;10.58;55.29;100658.10;217575;1286;138924;-87
2023/05/11 02:34:39;;;;;;;10.70;4.30;;;;;;;10.50;55.55;100667.34;218094;1286;96503;-88
2023/05/11 02:39:44;;;;;;;11.00;4.50;;;;;;;10.42;56.39;100670.75;217152;1286;257834;-91
2023/05/11 02:45:07;;;;;;;10.00;4.30;;;;;;;10.33;56.27;100670.69;218000;1283;137707;-87
2023/05/11 02:50:08;;;;;;;13.10;4.30;;;;;;;10.24;56.15;100673.61;217391;1283;138457;-85
2023/05/11 02:55:10;;;;;;;10.10;4.50;;;;;;;10.16;56.56;100676.86;218047;1282;137939;-89
2023/05/11 03:00:11;;;;;;;11.00;4.20;;;;;;;10.09;56.78;100676.76;217560;1283;138161;-88
2023/05/11 03:05:12;;;;;;;9.10;4.10;;;;;;;10.04;56.92;100684.58;218048;1288;97062;-89
2023/05/11 03:10:13;;;;;;;11.00;4.90;;;;;;;9.98;57.14;100687.67;217443;1286;139392;-88
2023/05/11 03:15:14;;;;;;;11.90;4.30;;;;;;;9.93;57.13;100682.48;218016;1282;137464;-91
2023/05/11 03:20:16;;;;;;;12.70;4.80;;;;;;;9.88;57.31;100686.02;217552;1283;138309;-87
2023/05/11 03:25:17;;;;;;;11.20;4.50;;;;;;;9.82;57.70;100686.21;218100;1282;137683;-88
2023/05/11 03:30:19;;;;;;;11.10;4.30;;;;;;;9.77;57.92;100687.08;217516;1282;137481;-87
2023/05/11 03:35:24;;;;;;;10.40;4.80;;;;;;;9.73;58.26;100691.15;217937;1282;137605;-86
2023/05/11 03:40:28;;;;;;;11.30;5.20;;;;;;;9.70;58.76;100693.06;217667;1286;138009;-86
2023/05/11 03:45:30;;;;;;;13.50;5.90;;;;;;;9.69;58.89;100693.68;218135;1283;137380;-86
2023/05/11 03:50:32;;;;;;;12.20;4.50;;;;;;;9.70;58.95;100694.88;217528;1286;138444;-87
2023/05/11 03:55:33;;;;;;;12.00;5.20;;;;;;;9.72;59.03;100698.92;218129;1282;137509;-88
2023/05/11 04:00:38;;;;;;;10.80;5.00;;;;;;;9.76;58.97;100696.70;217556;1283;138155;-87
2023/05/11 04:05:40;;;;;;;12.30;5.20;;;;;;;9.78;59.39;100699.17;218056;1283;139321;-86
2023/05/11 04:10:40;;;;;;;13.80;5.40;;;;;;;9.81;59.32;100698.14;217532;1282;138212;-84
2023/05/11 04:15:41;;;;;;;15.00;7.10;;;;;;;9.85;59.64;100697.26;218126;1282;137513;-86
2023/05/11 04:20:41;;;;;;;9.90;4.70;;;;;;;9.88;59.72;100693.94;217552;1283;137508;-87
2023/05/11 04:25:41;;;;;;;13.00;4.90;;;;;;;9.93;59.68;100699.84;218065;1282;137470;-86
2023/05/11 04:30:42;;;;;;;15.50;5.70;;;;;;;9.98;59.85;100705.36;217580;1283;138304;-88
2023/05/11 04:35:42;;;;;;;13.40;4.50;;;;;;;10.06;60.11;100702.78;217950;1286;137827;-88
2023/05/11 04:40:42;;;;;;;13.20;6.00;;;;;;;10.17;60.02;100712.70;217683;1282;138317;-86
2023/05/11 04:45:50;;;;;;;14.30;5.50;;;;;;;10.28;60.00;100704.56;217925;1286;138632;-86
2023/05/11 04:50:52;;;;;;;13.70;5.10;;;;;;;10.40;59.75;100705.64;217542;1286;138592;-89
2023/05/11 04:55:53;;;;;;;13.40;5.60;;;;;;;10.50;59.68;100709.73;217943;1282;137883;-88
2023/05/11 05:00:53;;;;;;;15.20;5.90;;;;;;;10.61;59.56;100707.67;217208;1283;138236;-87
2023/05/11 05:05:53;;;;;;;11.00;5.00;;;;;;;10.71;59.33;100715.09;218100;1282;138851;-88
2023/05/11 05:10:54;;;;;;;11.10;5.00;;;;;;;10.82;59.27;100714.77;217639;1285;138137;-85
2023/05/11 05:15:55;;;;;;;14.70;6.10;;;;;;;10.93;58.88;100717.54;218115;1286;137806;-89
2023/05/11 05:20:55;;;;;;;16.90;5.80;;;;;;;11.11;58.86;100716.84;217496;1286;137701;-88
2023/05/11 05:25:56;;;;;;;11.80;5.70;;;;;;;11.37;58.15;100718.36;218006;1283;138757;-88
2023/05/11 05:30:57;;;;;;;12.60;6.10;;;;;;;11.73;57.77;100725.26;217570;1282;138454;-90
2023/05/11 05:35:57;;;;;;;11.70;5.20;;;;;;;12.17;57.13;100732.19;217915;1282;137849;-91
2023/05/11 05:40:58;;;;;;;17.60;5.60;;;;;;;12.71;56.91;100732.95;217449;1282;138011;-92
2023/05/11 05:45:58;;;;;;;15.90;6.00;;;;;;;13.27;55.44;100736.02;218083;1282;137846;-91
2023/05/11 05:50:59;;;;;;;15.50;6.20;;;;;;;13.79;54.58;100735.36;217566;1282;138067;-90
2023/05/11 05:55:59;;;;;;;14.70;5.70;;;;;;;14.33;53.64;100739.13;217997;1282;139279;-93
2023/05/11 06:01:00;;;;;;;13.90;5.80;;;;;;;14.88;52.80;100741.23;217353;1282;138636;-92
2023/05/11 06:06:03;;;;;;;16.90;6.00;;;;;;;15.30;51.70;100744.57;217797;1283;137843;-91
2023/05/11 06:11:04;;;;;;;16.50;5.80;;;;;;;15.75;51.12;100742.10;217579;1282;138139;-90
2023/05/11 06:16:04;;;;;;;16.20;6.10;;;;;;;16.16;49.86;100752.17;217886;1282;138489;-88
2023/05/11 06:21:05;;;;;;;16.00;6.10;;;;;;;16.31;48.89;100752.71;217517;1282;138179;-89
2023/05/11 06:26:05;;;;;;;13.60;6.30;;;;;;;16.32;48.39;100753.35;217944;1283;138036;-91
2023/05/11 06:31:06;;;;;;;15.40;6.20;;;;;;;16.43;48.36;100753.52;217579;1282;138702;-90
2023/05/11 06:36:06;;;;;;;12.90;6.30;;;;;;;16.62;48.09;100758.95;218079;1286;140041;-91
2023/05/11 06:41:10;;;;;;;14.70;5.90;;;;;;;16.74;47.75;100763.44;217618;1286;138083;-92
2023/05/11 06:46:15;;;;;;;12.00;5.90;;;;;;;17.02;47.14;100763.58;217840;1283;137993;-91
2023/05/11 06:51:15;;;;;;;18.10;7.20;;;;;;;17.05;46.54;100765.54;217244;1285;138065;-92
2023/05/11 06:56:16;;;;;;;17.80;6.00;;;;;;;17.07;47.15;100763.48;217977;1283;138577;-92
2023/05/11 07:01:16;;;;;;;12.50;6.50;;;;;;;17.29;47.07;100768.06;217513;1282;138953;-91
2023/05/11 07:06:17;;;;;;;16.00;8.00;;;;;;;17.36;46.42;100767.54;217895;1282;138617;-92
2023/05/11 07:11:17;;;;;;;15.40;6.50;;;;;;;17.26;46.42;100770.33;217415;1282;138589;-89
2023/05/11 07:16:18;;;;;;;12.90;5.90;;;;;;;17.14;46.33;100768.93;217841;1282;97215;-90
2023/05/11 07:21:20;;;;;;;14.80;6.50;;;;;;;16.99;46.45;100768.30;217380;1282;138810;-89
2023/05/11 07:26:21;;;;;;;12.60;5.80;;;;;;;16.94;46.85;100769.92;218009;1286;137983;-90
2023/05/11 07:31:21;;;;;;;13.40;5.90;;;;;;;16.94;46.70;100770.10;217505;1282;138668;-89
2023/05/11 07:36:22;;;;;;;11.50;6.40;;;;;;;16.96;46.95;100772.85;218022;1282;138034;-92
2023/05/11 07:41:25;;;;;;;13.20;6.00;;;;;;;16.96;47.08;100773.73;217457;1282;138687;-91
2023/05/11 07:46:26;;;;;;;12.80;6.20;;;;;;;16.97;47.52;100772.12;218124;1282;96561;-91
2023/05/11 07:51:27;;;;;;;15.30;6.10;;;;;;;17.17;47.44;100772.98;217471;1282;138057;-89
2023/05/11 07:56:27;;;;;;;12.10;5.70;;;;;;;17.19;46.88;100773.82;217987;1282;138053;-88
2023/05/11 08:01:28;;;;;;;14.70;5.90;;;;;;;17.36;47.70;100773.41;217230;1282;138108;-92
2023/05/11 08:06:31;;;;;;;11.40;4.60;;;;;;;17.69;47.55;100776.45;217819;1283;138022;-88
2023/05/11 08:11:33;;;;;;;10.80;5.60;;;;;;;17.99;46.38;100773.91;217287;1282;138744;-88
2023/05/11 08:16:35;;;;;;;14.90;5.10;;;;;;;18.38;45.79;100778.31;218006;1283;96542;-90
2023/05/11 08:21:36;;;;;;;12.60;5.50;;;;;;;19.01;45.12;100777.44;217305;1282;138146;-91
2023/05/11 08:26:37;;;;;;;11.60;5.30;;;;;;;19.56;44.23;100775.14;217831;1282;137837;-91
2023/05/11 08:31:39;;;;;;;11.80;5.00;;;;;;;20.28;43.95;100774.79;217519;1282;138056;-90
2023/05/11 08:36:39;;;;;;;10.60;4.90;;;;;;;21.06;42.91;100771.14;218018;1282;138045;-92
2023/05/11 08:41:40;;;;;;;14.10;5.60;;;;;;;21.64;41.91;100771.80;217440;1286;138409;-90
2023/05/11 08:46:48;;;;;;;12.10;5.30;;;;;;;22.13;40.30;100769.14;217992;1283;96516;-89
2023/05/11 08:51:48;;;;;;;10.90;4.60;;;;;;;22.51;39.51;100774.02;217368;1283;138209;-95
2023/05/11 08:56:50;;;;;;;11.60;4.50;;;;;;;23.11;39.13;100772.52;218090;1282;137826;-90
2023/05/11 09:01:51;;;;;;;12.20;4.20;;;;;;;23.45;37.40;100774.94;217491;1282;137945;-93
2023/05/11 09:06:53;;;;;;;15.30;4.50;;;;;;;23.55;36.51;100774.14;217750;1282;138059;-93
2023/05/11 09:11:54;;;;;;;10.80;4.60;;;;;;;24.12;36.11;100773.92;217276;1286;138521;-93
2023/05/11 09:16:57;;;;;;;30.70;5.50;;;;;;;24.64;36.11;100771.38;218026;1283;96600;-91
2023/05/11 09:21:59;;;;;;;9.10;4.40;;;;;;;25.18;34.89;100767.25;217534;1282;137678;-91
2023/05/11 09:27:09;;;;;;;9.70;4.10;;;;;;;25.17;34.32;100772.91;217980;1282;137878;-94
2023/05/11 09:32:10;;;;;;;11.30;4.60;;;;;;;25.11;33.27;100774.46;217461;1282;138419;-94
2023/05/11 09:37:18;;;;;;;11.30;4.10;;;;;;;25.10;33.61;100778.38;217921;1283;138130;-92
2023/05/11 09:42:20;;;;;;;10.00;4.30;;;;;;;25.43;33.44;100776.61;217350;1282;138926;-92
2023/05/11 09:47:21;;;;;;;11.80;4.30;;;;;;;25.79;33.59;100771.77;218095;1286;138007;-93
2023/05/11 09:52:22;;;;;;;8.20;3.90;;;;;;;26.52;33.03;100774.34;217553;1282;137564;-92
2023/05/11 09:57:30;;;;;;;9.90;4.00;;;;;;;26.95;31.92;100767.27;217925;1282;138035;-93
2023/05/11 10:02:31;;;;;;;11.50;4.10;;;;;;;26.83;31.05;100767.30;217481;1283;138659;-94
2023/05/11 10:07:33;;;;;;;10.80;4.00;;;;;;;26.97;31.95;100764.58;217706;1282;138237;-93
2023/05/11 10:12:37;;;;;;;8.70;3.60;;;;;;;27.28;31.14;100757.73;217400;1282;138747;-93
2023/05/11 10:17:38;;;;;;;10.80;4.20;;;;;;;27.44;30.47;100755.93;217741;1282;138257;-95
2023/05/11 10:22:38;;;;;;;14.20;3.90;;;;;;;27.37;30.50;100747.83;217319;1282;138311;-89
2023/05/11 10:27:39;;;;;;;20.30;4.10;;;;;;;27.20;30.07;100749.89;218096;1282;137871;-93
2023/05/11 10:32:39;;;;;;;13.70;3.90;;;;;;;26.90;29.79;100748.66;217351;1282;138008;-91
2023/05/11 10:37:45;;;;;;;7.00;3.60;;;;;;;26.91;30.43;100741.15;217733;1283;138138;-92
2023/05/11 10:43:16;;;;;;;8.10;3.40;;;;;;;27.02;29.67;100738.33;217481;1282;138081;-93
2023/05/11 10:48:54;;;;;;;8.70;3.50;;;;;;;26.80;29.62;100736.84;218018;1282;137818;-90
2023/05/11 10:54:07;;;;;;;9.40;3.50;;;;;;;27.05;29.40;100727.20;217490;1282;137870;-93
2023/05/11 10:59:39;;;;;;;8.60;3.40;;;;;;;27.33;29.58;100726.38;217585;1282;138739;-95
2023/05/11 11:04:45;;;;;;;10.40;3.40;;;;;;;27.44;28.54;100725.87;218112;1282;96728;-88
2023/05/11 11:09:55;;;;;;;9.50;3.90;;;;;;;27.10;28.61;100722.23;217472;1283;138300;-93
2023/05/11 11:15:01;;;;;;;9.10;3.60;;;;;;;26.98;28.85;100724.81;217760;1282;138528;-94
2023/05/11 11:20:07;;;;;;;9.20;3.40;;;;;;;27.27;28.81;100722.94;217538;1282;138163;-95
2023/05/11 11:25:09;;;;;;;7.70;2.80;;;;;;;27.48;28.64;100720.30;217967;1282;138182;-95
2023/05/11 11:30:29;;;;;;;7.20;2.90;;;;;;;27.70;28.64;100717.88;217088;1282;138245;-94
2023/05/11 11:35:41;;;;;;;7.90;3.40;;;;;;;27.67;27.95;100720.80;217860;1282;138103;-91
2023/05/11 11:40:45;;;;;;;7.90;3.60;;;;;;;27.38;28.40;100716.35;217587;1282;137486;-88
2023/05/11 11:45:59;;;;;;;11.30;3.30;;;;;;;27.26;28.46;100714.73;218082;1282;138700;-93
2023/05/11 11:51:07;;;;;;;9.50;3.30;;;;;;;27.29;28.37;100710.14;217315;1282;137921;-90
2023/05/11 11:56:14;;;;;;;9.50;3.20;;;;;;;26.85;28.29;100713.56;217840;1282;138007;-93
2023/05/11 12:01:22;;;;;;;8.20;3.00;;;;;;;26.96;28.69;100710.06;217369;1285;137918;-92
2023/05/11 12:06:27;;;;;;;8.20;3.70;;;;;;;27.15;28.49;100705.18;218008;1282;138002;-91
2023/05/11 12:11:29;;;;;;;7.00;3.40;;;;;;;26.67;28.10;100712.55;217379;1282;138764;-90
2023/05/11 12:16:30;;;;;;;7.60;2.80;;;;;;;26.80;28.82;100707.83;217979;1282;96962;-93
2023/05/11 12:21:31;;;;;;;8.10;3.00;;;;;;;26.83;28.06;100709.95;217577;1282;137934;-92
2023/05/11 12:26:33;;;;;;;7.70;3.30;;;;;;;26.89;28.45;100711.56;217916;1282;138187;-94
2023/05/11 12:31:35;;;;;;;6.10;2.80;;;;;;;26.83;28.15;100710.42;217384;1282;138826;-91
2023/05/11 12:36:35;;;;;;;8.70;3.10;;;;;;;26.51;28.06;100709.32;217874;1282;137832;-95
2023/05/11 12:41:42;;;;;;;8.40;3.20;;;;;;;26.42;27.98;100706.34;217416;1283;137987;-94
2023/05/11 12:46:46;;;;;;;6.90;3.30;;;;;;;26.26;28.51;100703.54;218164;1286;104481;-93
2023/05/11 12:51:56;;;;;;;5.80;2.90;;;;;;;26.25;28.24;100697.30;217585;1282;137978;-95
2023/05/11 12:56:57;;;;;;;8.00;3.30;;;;;;;26.44;28.49;100701.17;217883;1286;138126;-92
2023/05/11 13:02:22;;;;;;;8.50;3.20;;;;;;;26.44;28.37;100693.65;217301;1282;138210;-93
2023/05/11 13:07:25;;;;;;;7.10;2.90;;;;;;;26.36;27.99;100688.67;218055;1282;138076;-91
2023/05/11 13:12:28;;;;;;;6.30;3.10;;;;;;;26.17;28.23;100686.86;217588;1282;138161;-92
2023/05/11 13:17:30;;;;;;;5.70;2.90;;;;;;;26.08;28.09;100684.42;218062;1282;136973;-91
2023/05/11 13:22:30;;;;;;;7.00;2.90;;;;;;;26.15;28.70;100685.93;217451;1282;138154;-93
2023/05/11 13:27:31;;;;;;;9.60;2.90;;;;;;;26.29;28.69;100674.52;217603;1285;138719;-94
2023/05/11 13:32:31;;;;;;;5.30;2.90;;;;;;;26.38;28.17;100670.33;217160;1285;138756;-92
2023/05/11 13:37:32;;;;;;;6.80;2.80;;;;;;;26.25;28.13;100665.98;217608;1284;137875;-94
2023/05/11 13:42:33;;;;;;;8.30;2.80;;;;;;;26.17;28.56;100663.89;217032;1285;138018;-94
2023/05/11 13:47:34;;;;;;;8.20;3.40;;;;;;;26.24;28.47;100660.33;217531;1285;137979;-93
2023/05/11 13:52:36;;;;;;;6.60;2.90;;;;;;;26.20;28.72;100650.79;217138;1285;137639;-93
2023/05/11 13:57:36;;;;;;;7.30;3.00;;;;;;;26.08;28.63;100658.64;217643;1285;137971;-91
2023/05/11 14:02:37;;;;;;;5.60;2.60;;;;;;;25.99;30.47;100657.04;217118;1285;137926;-92
2023/05/11 14:07:37;;;;;;;6.40;2.70;;;;;;;26.27;29.31;100651.02;217572;1284;138061;-92
2023/05/11 14:12:39;;;;;;;6.90;3.00;;;;;;;25.96;28.41;100649.20;217004;1288;137947;-92
2023/05/11 14:17:41;;;;;;;5.70;2.90;;;;;;;25.51;29.23;100658.41;217583;1285;137875;-93
2023/05/11 14:22:42;;;;;;;10.00;2.90;;;;;;;25.18;29.14;100654.88;216879;1285;138165;-90
2023/05/11 14:27:43;;;;;;;6.30;3.10;;;;;;;24.68;29.51;100650.98;217565;1285;138013;-92
2023/05/11 14:32:43;;;;;;;9.90;4.50;;;;;;;24.36;30.82;100647.91;216989;1285;137836;-92
2023/05/11 14:37:44;;;;;;;6.50;2.80;;;;;;;24.29;30.59;100644.33;217431;1285;137809;-90
2023/05/11 14:42:44;;;;;;;6.10;2.80;;;;;;;23.99;30.19;100649.70;216935;1285;177537;-91
2023/05/11 14:47:44;;;;;;;7.30;3.00;;;;;;;23.72;31.26;100644.33;217492;1284;138723;-89
2023/05/11 14:52:45;;;;;;;9.20;3.50;;;;;;;23.70;31.42;100645.68;217206;1285;138057;-93
2023/05/11 14:57:46;;;;;;;8.50;3.20;;;;;;;23.54;31.22;100646.55;217549;1284;136529;-93
2023/05/11 15:02:47;;;;;;;8.00;3.20;;;;;;;23.34;31.83;100649.48;217079;1285;137972;-92
2023/05/11 15:07:47;;;;;;;6.10;3.10;;;;;;;23.21;31.84;100653.66;217594;1285;137921;-89
2023/05/11 15:12:48;;;;;;;7.30;3.00;;;;;;;23.10;31.96;100649.55;216977;1285;138627;-91
2023/05/11 15:17:49;;;;;;;11.20;3.50;;;;;;;22.85;32.16;100649.24;217493;1285;137831;-90
2023/05/11 15:22:49;;;;;;;8.30;3.10;;;;;;;22.78;32.66;100643.42;216920;1285;139291;-90
2023/05/11 15:27:50;;;;;;;7.10;3.20;;;;;;;22.68;32.62;100647.92;217604;1285;137711;-90
2023/05/11 15:32:50;;;;;;;6.30;3.10;;;;;;;22.56;32.47;100647.97;217038;1286;138647;-92
2023/05/11 15:37:51;;;;;;;12.60;3.40;;;;;;;22.30;32.57;100647.70;217558;1288;137888;-88
2023/05/11 15:42:51;;;;;;;5.90;2.90;;;;;;;22.08;32.83;100641.38;216982;1288;138458;-91
2023/05/11 15:47:52;;;;;;;8.40;3.20;;;;;;;21.96;32.92;100642.49;217470;1288;137926;-92
2023/05/11 15:52:55;;;;;;;8.50;2.90;;;;;;;21.77;32.98;100648.54;217130;1285;138396;-88
2023/05/11 15:57:55;;;;;;;7.50;3.30;;;;;;;21.60;33.35;100652.41;217527;1284;137666;-91
2023/05/11 16:02:56;;;;;;;6.40;2.90;;;;;;;21.48;33.64;100653.09;217244;1285;208187;-89
2023/05/11 16:07:56;;;;;;;7.40;3.30;;;;;;;21.34;34.00;100661.11;217558;1285;140343;-92
2023/05/11 16:12:57;;;;;;;7.70;2.70;;;;;;;21.14;33.49;100664.02;216746;1288;138647;-87
2023/05/11 16:17:58;;;;;;;6.30;2.50;;;;;;;20.94;33.58;100662.08;217272;1285;137856;-89
2023/05/11 16:22:58;;;;;;;14.40;3.50;;;;;;;20.78;34.40;100661.05;217126;1285;137473;-87
2023/05/11 16:27:58;;;;;;;7.40;3.00;;;;;;;20.62;34.35;100662.59;217983;1287;137856;-91
2023/05/11 16:32:59;;;;;;;19.40;3.80;;;;;;;20.49;34.28;100662.06;217522;1282;137683;-89
2023/05/11 16:38:00;;;;;;;8.50;3.30;;;;;;;20.37;34.47;100662.05;218047;1287;137995;-89
2023/05/11 16:43:00;;;;;;;4.90;2.60;;;;;;;20.27;35.41;100662.08;217347;1282;137844;-89
2023/05/11 16:48:01;;;;;;;8.00;3.70;;;;;;;20.13;35.03;100662.81;218102;1282;138705;-88
2023/05/11 16:53:02;;;;;;;7.10;2.60;;;;;;;20.00;35.17;100658.16;217386;1282;137829;-90
2023/05/11 16:58:02;;;;;;;7.60;3.00;;;;;;;19.88;35.53;100659.30;217845;1282;137793;-88
2023/05/11 17:03:03;;;;;;;6.70;3.40;;;;;;;19.76;35.81;100666.69;217350;1282;137921;-90
2023/05/11 17:08:03;;;;;;;9.30;3.80;;;;;;;19.65;36.24;100667.49;217937;1282;138458;-90
2023/05/11 17:13:04;;;;;;;7.20;3.10;;;;;;;19.51;36.26;100670.02;217515;1282;137854;-89
2023/05/11 17:18:04;;;;;;;8.20;2.80;;;;;;;19.38;36.36;100667.43;217842;1282;137862;-87
2023/05/11 17:23:05;;;;;;;7.20;2.90;;;;;;;19.27;36.54;100668.23;217687;1282;137922;-86
2023/05/11 17:28:05;;;;;;;7.50;2.90;;;;;;;19.16;36.94;100672.18;218148;1282;137695;-85
2023/05/11 17:33:06;;;;;;;6.40;3.00;;;;;;;19.05;37.32;100677.41;217563;1282;138186;-87
2023/05/11 17:38:06;;;;;;;6.10;3.10;;;;;;;18.92;37.59;100683.40;217812;1282;137810;-86
2023/05/11 17:43:07;;;;;;;6.50;3.30;;;;;;;18.81;37.57;100685.59;217601;1282;138211;-87
2023/05/11 17:48:07;;;;;;;10.40;4.10;;;;;;;18.68;38.00;100687.66;217889;1282;137882;-87
2023/05/11 17:53:08;;;;;;;5.80;2.80;;;;;;;18.55;38.45;100686.86;217402;1283;139889;-85
2023/05/11 17:58:08;;;;;;;8.80;3.30;;;;;;;18.42;38.69;100694.96;218084;1283;137683;-85
2023/05/11 18:03:10;;;;;;;10.00;4.00;;;;;;;18.26;39.14;100695.93;217451;1282;138366;-85
2023/05/11 18:08:12;;;;;;;6.30;3.30;;;;;;;18.12;39.09;100702.11;217995;1282;138033;-86
2023/05/11 18:13:13;;;;;;;12.70;3.60;;;;;;;18.00;39.44;100705.38;217481;1286;138400;-84
2023/05/11 18:18:15;;;;;;;6.90;2.90;;;;;;;17.89;39.63;100708.81;217892;1282;136937;-87
2023/05/11 18:23:15;;;;;;;6.70;3.10;;;;;;;17.73;39.78;100711.81;217612;1283;138201;-86
2023/05/11 18:28:16;;;;;;;9.30;3.90;;;;;;;17.58;40.17;100715.05;217874;1283;138503;-88
2023/05/11 18:33:16;;;;;;;6.70;3.30;;;;;;;17.43;40.54;100722.14;217285;1283;138508;-85
2023/05/11 18:38:18;;;;;;;5.20;2.70;;;;;;;17.29;41.10;100729.04;218026;1282;139467;-85
2023/05/11 18:43:19;;;;;;;10.90;4.20;;;;;;;17.12;41.56;100733.84;217465;1283;138074;-84
2023/05/11 18:48:20;;;;;;;11.50;4.30;;;;;;;16.96;41.88;100742.51;218016;1283;138282;-85
2023/05/11 18:53:21;;;;;;;11.70;3.90;;;;;;;16.81;42.41;100748.77;217384;1283;139003;-84
2023/05/11 18:58:22;;;;;;;8.80;3.30;;;;;;;16.65;42.88;100752.23;218005;1283;96703;-86
2023/05/11 19:03:22;;;;;;;9.40;3.70;;;;;;;16.49;43.28;100758.41;217072;1287;139516;-85
2023/05/11 19:08:23;;;;;;;10.20;3.50;;;;;;;16.36;43.66;100770.62;218046;1283;138124;-86
2023/05/11 19:13:24;;;;;;;7.90;3.40;;;;;;;16.22;44.29;100773.41;217359;1285;138508;-86
2023/05/11 19:18:27;;;;;;;9.30;4.00;;;;;;;16.08;44.68;100774.69;218124;1283;138075;-85
2023/05/11 19:23:28;;;;;;;10.40;4.00;;;;;;;15.95;45.02;100780.79;217641;1286;138155;-85
2023/05/11 19:28:28;;;;;;;9.70;3.70;;;;;;;15.84;45.26;100788.53;218149;1282;105824;-89
2023/05/11 19:33:29;;;;;;;9.30;3.90;;;;;;;15.74;45.46;100793.80;217572;1283;139070;-87
2023/05/11 19:38:30;;;;;;;12.20;3.90;;;;;;;15.64;45.84;100799.63;218143;1288;137826;-84
2023/05/11 19:43:30;;;;;;;13.90;4.80;;;;;;;15.52;46.12;100805.05;217584;1287;138750;-85
2023/05/11 19:48:31;;;;;;;8.60;3.60;;;;;;;15.42;46.42;100806.98;218019;1287;138065;-83
2023/05/11 19:53:32;;;;;;;13.50;4.50;;;;;;;15.33;46.65;100810.33;217424;1287;138032;-84
2023/05/11 19:58:32;;;;;;;9.60;4.40;;;;;;;15.24;46.95;100812.48;218251;1282;96663;-85
2023/05/11 20:03:32;;;;;;;9.50;4.30;;;;;;;15.15;47.28;100813.83;217577;1283;138441;-86
2023/05/11 20:08:33;;;;;;;9.70;3.80;;;;;;;15.05;47.36;100811.30;218011;1283;137861;-87
2023/05/11 20:13:33;;;;;;;9.00;4.00;;;;;;;14.95;47.55;100819.01;217556;1283;137917;-87
2023/05/11 20:18:34;;;;;;;12.40;4.00;;;;;;;14.85;47.65;100818.61;217831;1283;138157;-86
2023/05/11 20:23:34;;;;;;;10.10;3.70;;;;;;;14.80;47.77;100821.30;217560;1286;138888;-85
2023/05/11 20:28:35;;;;;;;10.30;4.50;;;;;;;14.76;47.72;100825.56;217979;1282;97260;-89
2023/05/11 20:33:35;;;;;;;9.30;4.10;;;;;;;14.68;47.90;100828.34;217483;1287;138061;-88
2023/05/11 20:38:36;;;;;;;11.40;4.50;;;;;;;14.61;48.01;100834.11;217887;1282;137929;-88
2023/05/11 20:43:36;;;;;;;11.30;4.50;;;;;;;14.54;48.27;100834.02;217384;1287;138513;-88
2023/05/11 20:48:37;;;;;;;9.30;4.40;;;;;;;14.45;48.40;100836.23;218097;1288;137989;-87
2023/05/11 20:53:37;;;;;;;10.50;4.10;;;;;;;14.39;48.53;100840.48;217255;1287;139428;-90
2023/05/11 20:58:38;;;;;;;10.00;4.60;;;;;;;14.34;48.70;100841.50;218163;1283;97164;-86
2023/05/11 21:03:38;;;;;;;10.70;4.40;;;;;;;14.26;49.00;100838.71;217419;1282;138040;-87
2023/05/11 21:08:39;;;;;;;16.10;4.80;;;;;;;14.18;49.09;100837.41;218052;1283;138023;-89
2023/05/11 21:13:39;;;;;;;11.80;4.50;;;;;;;14.11;49.07;100837.92;217560;1288;138047;-90
2023/05/11 21:18:41;;;;;;;9.70;4.40;;;;;;;14.04;49.14;100837.89;217968;1283;138936;-90
2023/05/11 21:23:41;;;;;;;10.40;4.90;;;;;;;13.98;49.28;100845.79;217320;1283;137995;-88
2023/05/11 21:28:42;;;;;;;10.00;4.30;;;;;;;13.89;49.46;100846.62;218167;1284;96641;-88
2023/05/11 21:33:42;;;;;;;7.90;4.70;;;;;;;13.82;49.77;100852.11;217457;1283;137990;-89
2023/05/11 21:38:44;;;;;;;10.20;4.90;;;;;;;13.76;49.87;100855.09;218084;1288;137682;-87
2023/05/11 21:43:44;;;;;;;8.30;3.80;;;;;;;13.70;49.81;100859.41;217450;1288;138707;-88
2023/05/11 21:48:45;;;;;;;9.20;4.50;;;;;;;13.64;49.87;100859.22;218149;1283;138461;-87
2023/05/11 21:53:46;;;;;;;10.40;4.20;;;;;;;13.58;50.05;100863.05;217640;1282;138215;-89
2023/05/11 21:58:47;;;;;;;11.00;3.90;;;;;;;13.54;50.06;100867.38;218228;1283;96516;-88
2023/05/11 22:03:47;;;;;;;11.20;3.70;;;;;;;13.49;50.27;100869.09;217278;1288;139008;-88
2023/05/11 22:08:48;;;;;;;8.80;4.10;;;;;;;13.44;50.27;100877.89;218078;1287;137790;-88
2023/05/11 22:13:48;;;;;;;9.30;4.00;;;;;;;13.38;50.47;100872.66;217308;1287;138822;-88
2023/05/11 22:18:49;;;;;;;8.90;4.10;;;;;;;13.34;50.44;100878.92;218091;1286;137824;-90
2023/05/11 22:23:50;;;;;;;13.80;4.30;;;;;;;13.29;50.65;100880.09;217510;1287;138580;-90
2023/05/11 22:28:51;;;;;;;7.40;3.50;;;;;;;13.26;50.67;100878.33;217981;1283;96567;-89
2023/05/11 22:33:51;;;;;;;8.80;4.00;;;;;;;13.22;50.78;100879.87;217506;1283;137902;-90
2023/05/11 22:38:51;;;;;;;8.00;4.00;;;;;;;13.16;50.83;100876.59;217768;1283;137859;-90
2023/05/11 22:43:52;;;;;;;8.90;4.10;;;;;;;13.11;50.91;100876.00;217215;1283;139554;-89
2023/05/11 22:48:52;;;;;;;9.60;3.70;;;;;;;13.08;51.04;100878.89;218026;1282;137940;-87